sensor_id;sensor_type;location;lat;lon;timestamp;pressure;altitude;pressure_sealevel;temperature;humidity
27805;BME280;15183;51.350;11.102;2023-05-19T00:01:12;101017.34;;;16.25;41.07
27805;BME280;15183;51.350;11.102;2023-05-19T00:03:53;101010.97;;;16.14;40.77
27805;BME280;15183;51.350;11.102;2023-05-19T00:06:25;101005.88;;;16.12;41.40
27805;BME280;15183;51.350;11.102;2023-05-19T00:08:59;101003.88;;;16.08;41.42
27805;BME280;15183;51.350;11.102;2023-05-19T00:11:27;101008.19;;;16.09;40.89
27805;BME280;15183;51.350;11.102;2023-05-19T00:13:56;100981.44;;;15.97;41.54
27805;BME280;15183;51.350;11.102;2023-05-19T00:16:25;101003.06;;;16.07;41.52
27805;BME280;15183;51.350;11.102;2023-05-19T00:18:51;101014.22;;;16.16;41.22
27805;BME280;15183;51.350;11.102;2023-05-19T00:21:19;101008.88;;;16.16;41.44
27805;BME280;15183;51.350;11.102;2023-05-19T00:23:46;100991.09;;;16.10;41.08
27805;BME280;15183;51.350;11.102;2023-05-19T00:26:12;100990.72;;;16.18;41.01
27805;BME280;15183;51.350;11.102;2023-05-19T00:28:39;100998.63;;;16.25;41.49
27805;BME280;15183;51.350;11.102;2023-05-19T00:31:05;100993.28;;;16.25;41.33
27805;BME280;15183;51.350;11.102;2023-05-19T00:33:32;100997.22;;;16.34;41.02
27805;BME280;15183;51.350;11.102;2023-05-19T00:36:02;100994.66;;;16.39;41.31
27805;BME280;15183;51.350;11.102;2023-05-19T00:38:34;100989.53;;;16.38;41.31
27805;BME280;15183;51.350;11.102;2023-05-19T00:41:02;100991.75;;;16.41;41.21
27805;BME280;15183;51.350;11.102;2023-05-19T00:43:29;100985.25;;;16.37;40.96
27805;BME280;15183;51.350;11.102;2023-05-19T00:45:56;100988.81;;;16.42;41.31
27805;BME280;15183;51.350;11.102;2023-05-19T00:48:24;100991.97;;;16.39;41.12
27805;BME280;15183;51.350;11.102;2023-05-19T00:50:55;100966.91;;;16.16;41.42
27805;BME280;15183;51.350;11.102;2023-05-19T00:53:23;100990.72;;;16.30;41.74
27805;BME280;15183;51.350;11.102;2023-05-19T00:55:50;100974.56;;;16.13;41.65
27805;BME280;15183;51.350;11.102;2023-05-19T00:58:17;100987.25;;;16.17;41.45
27805;BME280;15183;51.350;11.102;2023-05-19T01:00:44;100989.34;;;16.03;41.92
27805;BME280;15183;51.350;11.102;2023-05-19T01:03:11;100996.69;;;15.96;42.00
27805;BME280;15183;51.350;11.102;2023-05-19T01:05:40;100989.09;;;15.81;42.31
27805;BME280;15183;51.350;11.102;2023-05-19T01:08:07;100981.19;;;15.74;42.73
27805;BME280;15183;51.350;11.102;2023-05-19T01:10:34;100980.69;;;15.66;42.30
27805;BME280;15183;51.350;11.102;2023-05-19T01:13:04;100984.19;;;15.54;42.52
27805;BME280;15183;51.350;11.102;2023-05-19T01:15:40;100987.75;;;15.36;43.17
27805;BME280;15183;51.350;11.102;2023-05-19T01:18:14;101000.50;;;15.34;43.28
27805;BME280;15183;51.350;11.102;2023-05-19T01:21:05;100988.88;;;15.28;43.29
27805;BME280;15183;51.350;11.102;2023-05-19T01:32:41;100988.00;;;15.04;43.69
27805;BME280;15183;51.350;11.102;2023-05-19T01:35:09;100988.94;;;15.10;43.62
27805;BME280;15183;51.350;11.102;2023-05-19T01:37:38;100969.19;;;14.99;43.71
27805;BME280;15183;51.350;11.102;2023-05-19T01:40:07;100986.03;;;15.11;43.37
27805;BME280;15183;51.350;11.102;2023-05-19T01:42:34;100975.94;;;15.13;43.44
27805;BME280;15183;51.350;11.102;2023-05-19T01:45:06;100988.16;;;15.21;43.29
27805;BME280;15183;51.350;11.102;2023-05-19T01:47:39;100979.94;;;15.23;43.78
27805;BME280;15183;51.350;11.102;2023-05-19T01:50:07;100988.06;;;15.28;43.44
27805;BME280;15183;51.350;11.102;2023-05-19T01:52:33;100982.94;;;15.26;42.88
27805;BME280;15183;51.350;11.102;2023-05-19T01:55:00;100986.56;;;15.32;43.03
27805;BME280;15183;51.350;11.102;2023-05-19T01:57:50;100994.00;;;15.30;43.10
27805;BME280;15183;51.350;11.102;2023-05-19T02:06:17;100997.34;;;15.25;43.04
27805;BME280;15183;51.350;11.102;2023-05-19T02:14:16;100971.97;;;15.04;43.73
27805;BME280;15183;51.350;11.102;2023-05-19T02:16:47;100979.22;;;15.15;43.53
27805;BME280;15183;51.350;11.102;2023-05-19T02:19:32;100980.25;;;15.14;43.41
27805;BME280;15183;51.350;11.102;2023-05-19T02:21:59;100965.06;;;15.15;43.39
27805;BME280;15183;51.350;11.102;2023-05-19T02:24:25;100979.34;;;15.21;42.90
27805;BME280;15183;51.350;11.102;2023-05-19T02:26:53;100980.75;;;15.23;43.56
27805;BME280;15183;51.350;11.102;2023-05-19T02:29:19;100978.78;;;15.30;43.11
27805;BME280;15183;51.350;11.102;2023-05-19T02:31:47;100973.56;;;15.24;43.15
27805;BME280;15183;51.350;11.102;2023-05-19T02:34:13;100978.44;;;15.27;43.72
27805;BME280;15183;51.350;11.102;2023-05-19T02:36:41;100974.22;;;15.19;43.47
27805;BME280;15183;51.350;11.102;2023-05-19T02:39:10;100973.06;;;15.15;43.74
27805;BME280;15183;51.350;11.102;2023-05-19T02:41:38;100971.91;;;15.11;43.73
27805;BME280;15183;51.350;11.102;2023-05-19T02:44:04;100960.72;;;15.02;43.54
27805;BME280;15183;51.350;11.102;2023-05-19T02:46:30;100978.00;;;14.99;44.01
27805;BME280;15183;51.350;11.102;2023-05-19T02:48:57;100962.66;;;14.95;43.88
27805;BME280;15183;51.350;11.102;2023-05-19T02:51:23;100952.78;;;14.83;43.85
27805;BME280;15183;51.350;11.102;2023-05-19T02:53:50;100956.94;;;14.79;44.30
27805;BME280;15183;51.350;11.102;2023-05-19T02:56:17;100965.53;;;14.81;44.68
27805;BME280;15183;51.350;11.102;2023-05-19T02:58:43;100954.69;;;14.76;43.93
27805;BME280;15183;51.350;11.102;2023-05-19T03:01:09;100950.63;;;14.73;44.05
27805;BME280;15183;51.350;11.102;2023-05-19T03:03:36;100957.00;;;14.72;44.22
27805;BME280;15183;51.350;11.102;2023-05-19T03:06:03;100944.75;;;14.65;44.49
27805;BME280;15183;51.350;11.102;2023-05-19T03:08:30;100960.72;;;14.71;44.61
27805;BME280;15183;51.350;11.102;2023-05-19T03:10:56;100957.22;;;14.71;44.19
27805;BME280;15183;51.350;11.102;2023-05-19T03:13:22;100970.28;;;14.79;44.73
27805;BME280;15183;51.350;11.102;2023-05-19T03:15:49;100962.28;;;14.79;44.35
27805;BME280;15183;51.350;11.102;2023-05-19T03:18:16;100969.91;;;14.75;44.62
27805;BME280;15183;51.350;11.102;2023-05-19T03:20:42;100958.94;;;14.65;44.50
27805;BME280;15183;51.350;11.102;2023-05-19T03:23:09;100963.50;;;14.58;45.05
27805;BME280;15183;51.350;11.102;2023-05-19T03:25:36;100964.66;;;14.50;44.85
27805;BME280;15183;51.350;11.102;2023-05-19T03:28:02;100968.56;;;14.47;44.79
27805;BME280;15183;51.350;11.102;2023-05-19T03:30:29;100976.94;;;14.51;45.08
27805;BME280;15183;51.350;11.102;2023-05-19T03:32:55;100971.75;;;14.56;44.59
27805;BME280;15183;51.350;11.102;2023-05-19T03:35:21;100966.78;;;14.60;45.13
27805;BME280;15183;51.350;11.102;2023-05-19T03:37:48;100952.63;;;14.59;45.04
27805;BME280;15183;51.350;11.102;2023-05-19T03:40:14;100963.75;;;14.75;45.10
27805;BME280;15183;51.350;11.102;2023-05-19T03:42:41;100960.19;;;14.81;44.63
27805;BME280;15183;51.350;11.102;2023-05-19T03:45:07;100972.31;;;14.96;44.68
27805;BME280;15183;51.350;11.102;2023-05-19T03:47:34;100976.28;;;15.05;44.93
27805;BME280;15183;51.350;11.102;2023-05-19T03:50:00;100963.88;;;15.11;44.27
27805;BME280;15183;51.350;11.102;2023-05-19T03:52:27;100969.38;;;15.28;44.24
27805;BME280;15183;51.350;11.102;2023-05-19T03:54:53;100961.16;;;15.41;44.19
27805;BME280;15183;51.350;11.102;2023-05-19T03:57:20;100976.66;;;15.63;43.90
27805;BME280;15183;51.350;11.102;2023-05-19T03:59:46;100969.81;;;15.79;44.31
27805;BME280;15183;51.350;11.102;2023-05-19T04:02:13;100982.75;;;15.94;44.27
27805;BME280;15183;51.350;11.102;2023-05-19T04:04:39;100959.16;;;15.91;44.04
27805;BME280;15183;51.350;11.102;2023-05-19T04:07:30;100958.31;;;16.02;44.21
27805;BME280;15183;51.350;11.102;2023-05-19T04:09:57;100967.97;;;16.03;43.53
27805;BME280;15183;51.350;11.102;2023-05-19T04:12:23;100955.97;;;16.06;44.22
27805;BME280;15183;51.350;11.102;2023-05-19T04:14:49;100986.69;;;16.15;44.17
27805;BME280;15183;51.350;11.102;2023-05-19T04:17:16;100976.19;;;16.14;44.18
27805;BME280;15183;51.350;11.102;2023-05-19T04:19:42;100976.44;;;16.12;44.00
27805;BME280;15183;51.350;11.102;2023-05-19T04:22:21;100970.38;;;16.05;43.97
27805;BME280;15183;51.350;11.102;2023-05-19T04:24:47;100970.97;;;16.07;43.66
27805;BME280;15183;51.350;11.102;2023-05-19T04:27:15;100981.81;;;16.12;43.74
27805;BME280;15183;51.350;11.102;2023-05-19T04:33:24;100987.25;;;16.17;43.32
27805;BME280;15183;51.350;11.102;2023-05-19T04:35:51;100987.69;;;16.26;43.31
27805;BME280;15183;51.350;11.102;2023-05-19T04:38:17;100966.66;;;16.18;43.27
27805;BME280;15183;51.350;11.102;2023-05-19T04:40:45;100990.59;;;16.37;43.56
27805;BME280;15183;51.350;11.102;2023-05-19T04:43:11;100997.69;;;16.43;43.04
27805;BME280;15183;51.350;11.102;2023-05-19T04:45:37;100991.84;;;16.46;43.27
27805;BME280;15183;51.350;11.102;2023-05-19T04:48:07;100985.94;;;16.44;42.85
27805;BME280;15183;51.350;11.102;2023-05-19T04:50:33;100994.41;;;16.53;42.92
27805;BME280;15183;51.350;11.102;2023-05-19T04:53:03;100994.72;;;16.56;43.04
27805;BME280;15183;51.350;11.102;2023-05-19T04:55:30;100981.50;;;16.49;42.79
27805;BME280;15183;51.350;11.102;2023-05-19T04:57:56;100986.00;;;16.61;42.17
27805;BME280;15183;51.350;11.102;2023-05-19T05:00:23;101000.44;;;16.60;42.33
27805;BME280;15183;51.350;11.102;2023-05-19T05:02:50;100984.97;;;16.50;42.55
27805;BME280;15183;51.350;11.102;2023-05-19T05:05:16;100982.69;;;16.42;42.58
27805;BME280;15183;51.350;11.102;2023-05-19T05:07:43;100990.22;;;16.45;42.52
27805;BME280;15183;51.350;11.102;2023-05-19T05:10:09;100984.63;;;16.46;42.38
27805;BME280;15183;51.350;11.102;2023-05-19T05:12:36;100986.84;;;16.49;42.52
27805;BME280;15183;51.350;11.102;2023-05-19T05:15:04;100984.28;;;16.55;42.21
27805;BME280;15183;51.350;11.102;2023-05-19T05:17:33;100979.81;;;16.60;42.07
27805;BME280;15183;51.350;11.102;2023-05-19T05:20:01;100981.53;;;16.67;42.47
27805;BME280;15183;51.350;11.102;2023-05-19T05:22:29;100990.69;;;16.83;42.01
27805;BME280;15183;51.350;11.102;2023-05-19T05:24:56;100979.84;;;16.89;42.14
27805;BME280;15183;51.350;11.102;2023-05-19T05:27:23;100980.75;;;17.07;42.04
27805;BME280;15183;51.350;11.102;2023-05-19T05:29:49;100987.41;;;17.21;42.39
27805;BME280;15183;51.350;11.102;2023-05-19T05:32:15;100991.09;;;17.32;41.78
27805;BME280;15183;51.350;11.102;2023-05-19T05:34:43;100991.00;;;17.44;41.78
27805;BME280;15183;51.350;11.102;2023-05-19T05:37:10;100995.69;;;17.54;42.14
27805;BME280;15183;51.350;11.102;2023-05-19T05:39:36;101003.44;;;17.68;41.80
27805;BME280;15183;51.350;11.102;2023-05-19T05:42:03;100993.59;;;17.73;41.75
27805;BME280;15183;51.350;11.102;2023-05-19T05:44:29;100996.25;;;17.90;41.37
27805;BME280;15183;51.350;11.102;2023-05-19T05:46:56;100988.28;;;17.96;41.69
27805;BME280;15183;51.350;11.102;2023-05-19T05:49:23;100998.06;;;18.02;41.46
27805;BME280;15183;51.350;11.102;2023-05-19T05:51:50;100997.72;;;17.98;41.49
27805;BME280;15183;51.350;11.102;2023-05-19T05:54:20;101003.75;;;18.05;40.90
27805;BME280;15183;51.350;11.102;2023-05-19T05:56:47;101010.56;;;18.13;41.22
27805;BME280;15183;51.350;11.102;2023-05-19T05:59:15;101012.97;;;18.15;40.75
27805;BME280;15183;51.350;11.102;2023-05-19T06:01:41;101007.94;;;18.18;41.21
27805;BME280;15183;51.350;11.102;2023-05-19T06:04:09;101000.47;;;18.20;41.22
27805;BME280;15183;51.350;11.102;2023-05-19T06:06:36;101005.97;;;18.31;41.20
27805;BME280;15183;51.350;11.102;2023-05-19T06:09:04;100988.50;;;18.28;40.82
27805;BME280;15183;51.350;11.102;2023-05-19T06:11:31;101008.09;;;18.51;40.63
27805;BME280;15183;51.350;11.102;2023-05-19T06:13:57;101007.41;;;18.61;40.86
27805;BME280;15183;51.350;11.102;2023-05-19T06:16:24;101008.56;;;18.70;40.96
27805;BME280;15183;51.350;11.102;2023-05-19T06:18:51;101002.16;;;18.71;40.56
27805;BME280;15183;51.350;11.102;2023-05-19T06:21:17;101002.78;;;18.78;40.99
27805;BME280;15183;51.350;11.102;2023-05-19T06:23:44;101006.09;;;18.86;40.91
27805;BME280;15183;51.350;11.102;2023-05-19T06:26:10;101017.66;;;18.91;40.87
27805;BME280;15183;51.350;11.102;2023-05-19T06:28:36;100994.31;;;18.92;40.60
27805;BME280;15183;51.350;11.102;2023-05-19T06:31:03;100995.22;;;18.98;40.92
27805;BME280;15183;51.350;11.102;2023-05-19T06:33:29;100999.59;;;19.04;40.45
27805;BME280;15183;51.350;11.102;2023-05-19T06:35:56;101002.88;;;19.11;40.74
27805;BME280;15183;51.350;11.102;2023-05-19T06:38:23;101008.88;;;19.23;40.38
27805;BME280;15183;51.350;11.102;2023-05-19T06:40:49;101011.06;;;19.27;40.39
27805;BME280;15183;51.350;11.102;2023-05-19T06:43:16;101003.22;;;19.20;40.34
27805;BME280;15183;51.350;11.102;2023-05-19T06:45:42;101013.47;;;19.23;39.88
27805;BME280;15183;51.350;11.102;2023-05-19T06:48:09;101011.03;;;19.21;40.38
27805;BME280;15183;51.350;11.102;2023-05-19T06:50:35;101009.97;;;19.22;40.25
27805;BME280;15183;51.350;11.102;2023-05-19T06:53:02;100991.47;;;19.26;39.71
27805;BME280;15183;51.350;11.102;2023-05-19T06:55:28;101004.97;;;19.36;39.66
27805;BME280;15183;51.350;11.102;2023-05-19T06:57:55;101008.00;;;19.45;39.36
27805;BME280;15183;51.350;11.102;2023-05-19T07:00:21;101002.63;;;19.45;39.67
27805;BME280;15183;51.350;11.102;2023-05-19T07:02:47;100992.13;;;19.44;39.47
27805;BME280;15183;51.350;11.102;2023-05-19T07:05:14;100994.66;;;19.56;39.79
27805;BME280;15183;51.350;11.102;2023-05-19T07:07:40;101002.59;;;19.78;40.25
27805;BME280;15183;51.350;11.102;2023-05-19T07:10:07;100985.03;;;19.98;40.00
27805;BME280;15183;51.350;11.102;2023-05-19T07:12:33;100995.16;;;20.38;39.28
27805;BME280;15183;51.350;11.102;2023-05-19T07:15:00;101004.97;;;20.65;39.27
27805;BME280;15183;51.350;11.102;2023-05-19T07:17:26;100996.66;;;20.72;39.28
27805;BME280;15183;51.350;11.102;2023-05-19T07:19:53;100992.13;;;20.93;38.82
27805;BME280;15183;51.350;11.102;2023-05-19T07:22:19;100995.13;;;21.13;38.96
27805;BME280;15183;51.350;11.102;2023-05-19T07:24:46;101005.66;;;21.40;39.09
27805;BME280;15183;51.350;11.102;2023-05-19T07:27:12;101000.00;;;21.67;37.97
27805;BME280;15183;51.350;11.102;2023-05-19T07:29:39;100993.22;;;21.91;38.04
27805;BME280;15183;51.350;11.102;2023-05-19T07:32:05;100980.75;;;22.10;38.04
27805;BME280;15183;51.350;11.102;2023-05-19T07:34:32;100990.09;;;22.39;37.86
27805;BME280;15183;51.350;11.102;2023-05-19T07:36:58;101006.00;;;22.56;36.71
27805;BME280;15183;51.350;11.102;2023-05-19T07:39:25;100988.44;;;22.59;36.17
27805;BME280;15183;51.350;11.102;2023-05-19T07:45:37;100973.31;;;22.58;35.48
27805;BME280;15183;51.350;11.102;2023-05-19T07:48:03;100984.28;;;22.72;35.88
27805;BME280;15183;51.350;11.102;2023-05-19T07:50:31;100990.22;;;22.79;35.05
27805;BME280;15183;51.350;11.102;2023-05-19T07:52:57;100979.94;;;22.81;35.61
27805;BME280;15183;51.350;11.102;2023-05-19T07:55:23;100987.19;;;22.86;35.10
27805;BME280;15183;51.350;11.102;2023-05-19T07:57:50;100982.81;;;22.90;35.16
27805;BME280;15183;51.350;11.102;2023-05-19T08:00:16;100987.88;;;23.02;35.12
27805;BME280;15183;51.350;11.102;2023-05-19T08:02:43;100981.81;;;23.20;34.97
27805;BME280;15183;51.350;11.102;2023-05-19T08:05:10;100978.00;;;23.26;35.00
27805;BME280;15183;51.350;11.102;2023-05-19T08:07:36;100981.09;;;23.44;35.14
27805;BME280;15183;51.350;11.102;2023-05-19T08:10:03;100971.88;;;23.45;34.72
27805;BME280;15183;51.350;11.102;2023-05-19T08:12:29;100979.69;;;23.52;34.06
27805;BME280;15183;51.350;11.102;2023-05-19T08:14:56;100972.31;;;23.58;34.02
27805;BME280;15183;51.350;11.102;2023-05-19T08:17:22;100962.66;;;23.51;33.49
27805;BME280;15183;51.350;11.102;2023-05-19T08:19:49;100982.31;;;23.57;33.84
27805;BME280;15183;51.350;11.102;2023-05-19T08:22:15;100967.00;;;23.47;33.75
27805;BME280;15183;51.350;11.102;2023-05-19T08:24:42;100968.59;;;23.48;34.18
27805;BME280;15183;51.350;11.102;2023-05-19T08:27:09;100971.22;;;23.59;33.75
27805;BME280;15183;51.350;11.102;2023-05-19T08:29:56;100963.06;;;23.64;34.31
27805;BME280;15183;51.350;11.102;2023-05-19T08:32:23;100962.88;;;23.79;34.17
27805;BME280;15183;51.350;11.102;2023-05-19T08:34:49;100954.09;;;23.93;33.28
27805;BME280;15183;51.350;11.102;2023-05-19T08:37:16;100941.88;;;23.95;33.56
27805;BME280;15183;51.350;11.102;2023-05-19T08:39:42;100943.28;;;24.17;33.84
27805;BME280;15183;51.350;11.102;2023-05-19T08:42:09;100945.06;;;24.27;33.11
27805;BME280;15183;51.350;11.102;2023-05-19T08:44:36;100937.66;;;24.33;33.18
27805;BME280;15183;51.350;11.102;2023-05-19T08:47:04;100943.88;;;24.33;32.22
27805;BME280;15183;51.350;11.102;2023-05-19T08:49:42;100933.75;;;24.20;32.59
27805;BME280;15183;51.350;11.102;2023-05-19T08:52:30;100931.63;;;24.17;32.96
27805;BME280;15183;51.350;11.102;2023-05-19T08:55:04;100937.09;;;24.11;31.80
27805;BME280;15183;51.350;11.102;2023-05-19T08:57:35;100934.41;;;24.11;32.25
27805;BME280;15183;51.350;11.102;2023-05-19T09:00:04;100924.31;;;24.17;32.51
27805;BME280;15183;51.350;11.102;2023-05-19T09:02:40;100930.19;;;24.24;31.94
27805;BME280;15183;51.350;11.102;2023-05-19T09:05:08;100913.19;;;24.19;31.79
27805;BME280;15183;51.350;11.102;2023-05-19T09:07:35;100922.72;;;24.35;31.97
27805;BME280;15183;51.350;11.102;2023-05-19T09:10:03;100913.00;;;24.34;31.66
27805;BME280;15183;51.350;11.102;2023-05-19T09:12:31;100918.25;;;24.45;31.50
27805;BME280;15183;51.350;11.102;2023-05-19T09:14:58;100927.56;;;24.38;31.10
27805;BME280;15183;51.350;11.102;2023-05-19T09:17:25;100915.97;;;24.13;31.67
27805;BME280;15183;51.350;11.102;2023-05-19T09:19:51;100915.59;;;24.01;31.30
27805;BME280;15183;51.350;11.102;2023-05-19T09:22:18;100911.31;;;23.95;31.34
27805;BME280;15183;51.350;11.102;2023-05-19T09:24:46;100913.50;;;23.93;31.47
27805;BME280;15183;51.350;11.102;2023-05-19T09:27:21;100914.09;;;23.84;31.24
27805;BME280;15183;51.350;11.102;2023-05-19T09:29:48;100912.41;;;23.94;31.89
27805;BME280;15183;51.350;11.102;2023-05-19T09:32:34;100917.22;;;23.97;31.39
27805;BME280;15183;51.350;11.102;2023-05-19T09:35:02;100917.50;;;23.95;31.55
27805;BME280;15183;51.350;11.102;2023-05-19T09:37:29;100918.50;;;24.05;31.91
27805;BME280;15183;51.350;11.102;2023-05-19T09:39:58;100919.84;;;24.07;31.55
27805;BME280;15183;51.350;11.102;2023-05-19T09:42:38;100912.75;;;24.11;31.29
27805;BME280;15183;51.350;11.102;2023-05-19T09:45:06;100925.00;;;24.28;30.90
27805;BME280;15183;51.350;11.102;2023-05-19T09:47:37;100908.75;;;24.28;31.23
27805;BME280;15183;51.350;11.102;2023-05-19T09:50:09;100902.16;;;24.34;30.93
27805;BME280;15183;51.350;11.102;2023-05-19T09:52:37;100917.69;;;24.48;31.16
27805;BME280;15183;51.350;11.102;2023-05-19T09:55:08;100911.00;;;24.40;31.20
27805;BME280;15183;51.350;11.102;2023-05-19T09:57:36;100908.09;;;24.36;31.24
27805;BME280;15183;51.350;11.102;2023-05-19T10:00:05;100920.47;;;24.42;30.71
27805;BME280;15183;51.350;11.102;2023-05-19T10:02:46;100912.31;;;24.23;29.88
27805;BME280;15183;51.350;11.102;2023-05-19T10:05:15;100908.25;;;24.02;30.39
27805;BME280;15183;51.350;11.102;2023-05-19T10:07:46;100886.94;;;23.95;30.63
27805;BME280;15183;51.350;11.102;2023-05-19T10:10:15;100890.75;;;23.94;30.97
27805;BME280;15183;51.350;11.102;2023-05-19T10:12:41;100879.28;;;23.78;31.27
27805;BME280;15183;51.350;11.102;2023-05-19T10:15:11;100882.84;;;23.73;31.28
27805;BME280;15183;51.350;11.102;2023-05-19T10:17:39;100875.13;;;23.61;30.97
27805;BME280;15183;51.350;11.102;2023-05-19T10:20:09;100886.03;;;23.56;30.42
27805;BME280;15183;51.350;11.102;2023-05-19T10:22:37;100864.16;;;23.52;30.94
27805;BME280;15183;51.350;11.102;2023-05-19T10:25:05;100873.41;;;23.46;31.39
27805;BME280;15183;51.350;11.102;2023-05-19T10:27:36;100859.16;;;23.40;31.41
27805;BME280;15183;51.350;11.102;2023-05-19T10:30:13;100867.91;;;23.56;31.45
27805;BME280;15183;51.350;11.102;2023-05-19T10:32:43;100856.09;;;23.72;31.41
27805;BME280;15183;51.350;11.102;2023-05-19T10:46:54;100845.19;;;24.39;29.88
27805;BME280;15183;51.350;11.102;2023-05-19T10:49:21;100863.13;;;24.54;29.79
27805;BME280;15183;51.350;11.102;2023-05-19T10:51:48;100847.28;;;24.62;30.09
27805;BME280;15183;51.350;11.102;2023-05-19T10:54:15;100852.47;;;24.58;30.10
27805;BME280;15183;51.350;11.102;2023-05-19T10:56:43;100857.19;;;24.52;29.60
27805;BME280;15183;51.350;11.102;2023-05-19T10:59:33;100841.75;;;24.34;30.07
27805;BME280;15183;51.350;11.102;2023-05-19T11:02:07;100847.81;;;24.45;30.28
27805;BME280;15183;51.350;11.102;2023-05-19T11:04:48;100847.16;;;24.34;29.92
27805;BME280;15183;51.350;11.102;2023-05-19T11:07:20;100845.47;;;24.19;29.84
27805;BME280;15183;51.350;11.102;2023-05-19T11:09:53;100840.91;;;23.95;29.72
27805;BME280;15183;51.350;11.102;2023-05-19T11:12:20;100828.53;;;23.69;30.28
27805;BME280;15183;51.350;11.102;2023-05-19T11:14:51;100847.16;;;23.71;30.55
27805;BME280;15183;51.350;11.102;2023-05-19T11:17:18;100841.75;;;23.71;30.46
27805;BME280;15183;51.350;11.102;2023-05-19T11:19:56;100842.56;;;23.72;30.58
27805;BME280;15183;51.350;11.102;2023-05-19T11:22:26;100832.34;;;23.68;30.77
27805;BME280;15183;51.350;11.102;2023-05-19T11:24:56;100829.16;;;23.61;30.21
27805;BME280;15183;51.350;11.102;2023-05-19T11:27:33;100830.47;;;23.64;30.62
27805;BME280;15183;51.350;11.102;2023-05-19T11:30:09;100837.13;;;23.52;30.14
27805;BME280;15183;51.350;11.102;2023-05-19T11:32:46;100837.50;;;23.40;30.55
27805;BME280;15183;51.350;11.102;2023-05-19T11:35:13;100830.25;;;23.36;30.70
27805;BME280;15183;51.350;11.102;2023-05-19T11:37:41;100837.84;;;23.34;30.12
27805;BME280;15183;51.350;11.102;2023-05-19T11:40:08;100844.59;;;23.36;30.75
27805;BME280;15183;51.350;11.102;2023-05-19T11:42:35;100825.75;;;23.26;30.56
27805;BME280;15183;51.350;11.102;2023-05-19T11:45:03;100839.75;;;23.33;30.49
27805;BME280;15183;51.350;11.102;2023-05-19T11:47:30;100825.66;;;23.36;30.97
27805;BME280;15183;51.350;11.102;2023-05-19T11:49:59;100811.91;;;23.33;30.43
27805;BME280;15183;51.350;11.102;2023-05-19T11:52:25;100827.94;;;23.48;30.34
27805;BME280;15183;51.350;11.102;2023-05-19T11:54:59;100823.47;;;23.63;29.95
27805;BME280;15183;51.350;11.102;2023-05-19T11:57:27;100828.47;;;23.75;30.39
27805;BME280;15183;51.350;11.102;2023-05-19T11:59:53;100830.44;;;23.88;30.48
27805;BME280;15183;51.350;11.102;2023-05-19T12:02:23;100826.16;;;24.06;29.54
27805;BME280;15183;51.350;11.102;2023-05-19T12:04:51;100820.09;;;24.14;29.77
27805;BME280;15183;51.350;11.102;2023-05-19T12:07:21;100815.25;;;24.31;29.95
27805;BME280;15183;51.350;11.102;2023-05-19T12:09:49;100836.41;;;24.48;29.73
27805;BME280;15183;51.350;11.102;2023-05-19T12:12:21;100832.50;;;24.54;29.48
27805;BME280;15183;51.350;11.102;2023-05-19T12:14:51;100818.84;;;24.45;29.04
27805;BME280;15183;51.350;11.102;2023-05-19T12:17:19;100806.69;;;24.42;29.05
27805;BME280;15183;51.350;11.102;2023-05-19T12:19:47;100821.06;;;24.57;28.98
27805;BME280;15183;51.350;11.102;2023-05-19T12:22:16;100813.53;;;24.54;28.07
27805;BME280;15183;51.350;11.102;2023-05-19T12:24:43;100809.72;;;24.55;27.92
27805;BME280;15183;51.350;11.102;2023-05-19T12:27:13;100808.72;;;24.51;27.40
27805;BME280;15183;51.350;11.102;2023-05-19T12:29:42;100813.03;;;24.52;27.13
27805;BME280;15183;51.350;11.102;2023-05-19T12:32:08;100822.69;;;24.58;27.42
27805;BME280;15183;51.350;11.102;2023-05-19T12:34:38;100809.34;;;24.62;27.35
27805;BME280;15183;51.350;11.102;2023-05-19T12:37:05;100815.13;;;24.74;27.42
27805;BME280;15183;51.350;11.102;2023-05-19T12:39:32;100808.88;;;24.74;27.56
27805;BME280;15183;51.350;11.102;2023-05-19T12:42:03;100822.66;;;24.77;27.39
27805;BME280;15183;51.350;11.102;2023-05-19T12:44:47;100821.44;;;24.69;26.88
27805;BME280;15183;51.350;11.102;2023-05-19T12:47:15;100823.19;;;24.60;26.91
27805;BME280;15183;51.350;11.102;2023-05-19T12:50:08;100824.38;;;24.54;26.75
27805;BME280;15183;51.350;11.102;2023-05-19T12:52:46;100810.13;;;24.48;26.79
27805;BME280;15183;51.350;11.102;2023-05-19T12:55:13;100816.16;;;24.59;26.39
27805;BME280;15183;51.350;11.102;2023-05-19T12:57:44;100805.81;;;24.61;26.52
27805;BME280;15183;51.350;11.102;2023-05-19T13:00:18;100814.16;;;24.65;25.97
27805;BME280;15183;51.350;11.102;2023-05-19T13:03:04;100811.25;;;24.61;26.24
27805;BME280;15183;51.350;11.102;2023-05-19T13:05:37;100811.78;;;24.63;26.65
27805;BME280;15183;51.350;11.102;2023-05-19T13:08:10;100810.69;;;24.64;26.65
27805;BME280;15183;51.350;11.102;2023-05-19T13:10:39;100810.13;;;24.62;27.04
27805;BME280;15183;51.350;11.102;2023-05-19T13:13:06;100807.50;;;24.57;26.48
27805;BME280;15183;51.350;11.102;2023-05-19T13:15:36;100796.84;;;24.47;26.69
27805;BME280;15183;51.350;11.102;2023-05-19T13:18:05;100792.63;;;24.40;26.47
27805;BME280;15183;51.350;11.102;2023-05-19T13:20:32;100794.59;;;24.35;26.94
27805;BME280;15183;51.350;11.102;2023-05-19T13:22:59;100797.97;;;24.26;26.48
27805;BME280;15183;51.350;11.102;2023-05-19T13:25:25;100806.97;;;24.22;27.34
27805;BME280;15183;51.350;11.102;2023-05-19T13:27:52;100796.16;;;24.22;27.42